createdAt,value
2023-04-20T00:00:48.400Z,70.89
2023-04-20T00:01:48.682Z,71.30
2023-04-20T00:02:49.525Z,71.41
2023-04-20T00:03:49.023Z,71.61
2023-04-20T00:04:49.077Z,71.61
2023-04-20T00:05:49.226Z,72.06
2023-04-20T00:06:49.423Z,71.64
2023-04-20T00:07:49.554Z,72.02
2023-04-20T00:08:49.801Z,72.23
2023-04-20T00:09:51.754Z,72.13
2023-04-20T00:10:50.146Z,72.44
2023-04-20T00:11:51.260Z,72.44
2023-04-20T00:12:50.667Z,72.64
2023-04-20T00:13:50.732Z,73.05
2023-04-20T00:14:50.927Z,72.85
2023-04-20T00:15:52.847Z,72.64
2023-04-20T00:16:53.282Z,72.74
2023-04-20T00:17:52.314Z,72.95
2023-04-20T00:18:51.758Z,72.85
2023-04-20T00:19:51.912Z,72.74
2023-04-20T00:20:52.748Z,72.78
2023-04-20T00:21:52.309Z,72.85
2023-04-20T00:22:52.454Z,72.85
2023-04-20T00:23:52.650Z,72.88
2023-04-20T00:24:52.841Z,72.85
2023-04-20T00:25:53.760Z,72.85
2023-04-20T00:26:53.157Z,73.19
2023-04-20T00:27:53.344Z,73.16
2023-04-20T00:28:53.489Z,73.05
2023-04-20T00:29:54.288Z,73.36
2023-04-20T00:30:53.876Z,73.19
2023-04-20T00:31:54.297Z,73.19
2023-04-20T00:32:54.796Z,73.16
2023-04-20T00:33:54.343Z,73.68
2023-04-20T00:34:55.256Z,73.16
2023-04-20T00:35:54.657Z,73.05
2023-04-20T00:36:54.814Z,73.47
2023-04-20T00:37:54.986Z,73.47
2023-04-20T00:38:55.640Z,73.29
2023-04-20T00:39:55.896Z,73.57
2023-04-20T00:40:57.252Z,73.47
2023-04-20T00:41:55.590Z,73.57
2023-04-20T00:42:55.813Z,73.81
2023-04-20T00:43:55.841Z,74.29
2023-04-20T00:44:57.751Z,73.60
2023-04-20T00:45:57.287Z,73.81
2023-04-20T00:46:58.253Z,74.02
2023-04-20T00:47:58.295Z,74.29
2023-04-20T00:48:57.316Z,74.22
2023-04-20T00:49:58.252Z,73.81
2023-04-20T00:50:57.150Z,74.12
2023-04-20T00:51:58.299Z,73.47
2023-04-20T00:52:57.557Z,73.68
2023-04-20T00:53:57.692Z,73.57
2023-04-20T00:54:57.846Z,73.39
2023-04-20T00:55:59.754Z,74.29
2023-04-20T00:56:58.803Z,74.19
2023-04-20T00:57:58.375Z,74.29
2023-04-20T00:58:59.290Z,74.19
2023-04-20T01:00:01.263Z,73.98
2023-04-20T01:00:59.753Z,74.50
2023-04-20T01:01:59.292Z,74.08
2023-04-20T01:02:59.938Z,73.57
2023-04-20T01:03:59.489Z,74.08
2023-04-20T01:04:59.632Z,74.19
2023-04-20T01:06:00.299Z,74.19
2023-04-20T01:06:59.901Z,73.77
2023-04-20T01:08:00.124Z,74.08
2023-04-20T01:09:00.264Z,74.29
2023-04-20T01:10:03.260Z,73.68
2023-04-20T01:11:02.260Z,74.19
2023-04-20T01:12:00.760Z,73.88
2023-04-20T01:13:00.931Z,73.98
2023-04-20T01:14:01.653Z,73.81
2023-04-20T01:15:02.270Z,74.40
2023-04-20T01:16:01.560Z,74.22
2023-04-20T01:17:01.839Z,74.43
2023-04-20T01:18:02.374Z,73.60
2023-04-20T01:19:02.052Z,74.08
2023-04-20T01:20:02.229Z,74.53
2023-04-20T01:21:02.400Z,74.71
2023-04-20T01:22:02.551Z,74.43
2023-04-20T01:23:03.652Z,74.63
2023-04-20T01:24:02.885Z,74.63
2023-04-20T01:25:03.810Z,74.84
2023-04-20T01:26:03.762Z,74.84
2023-04-20T01:27:03.398Z,75.26
2023-04-20T01:28:03.673Z,74.74
2023-04-20T01:29:03.807Z,74.95
2023-04-20T01:30:04.806Z,75.67
2023-04-20T01:31:04.345Z,75.36
2023-04-20T01:32:04.811Z,74.95
2023-04-20T01:33:05.277Z,75.26
2023-04-20T01:34:04.633Z,75.26
2023-04-20T01:35:04.769Z,75.57
2023-04-20T01:36:05.322Z,75.74
2023-04-20T01:37:05.808Z,75.05
2023-04-20T01:38:05.357Z,75.36
2023-04-20T01:39:05.514Z,75.63
2023-04-20T01:40:06.339Z,75.32
2023-04-20T01:41:06.656Z,75.32
2023-04-20T01:42:07.267Z,75.53
2023-04-20T01:43:06.364Z,75.22
2023-04-20T01:44:07.825Z,75.53
2023-04-20T01:45:06.528Z,74.91
2023-04-20T01:46:06.659Z,75.63
2023-04-20T01:47:06.859Z,75.63
2023-04-20T01:48:07.055Z,75.22
2023-04-20T01:49:07.810Z,74.81
2023-04-20T01:50:07.385Z,75.63
2023-04-20T01:51:08.271Z,75.12
2023-04-20T01:52:07.783Z,75.12
2023-04-20T01:53:08.771Z,76.04
2023-04-20T01:54:08.768Z,75.32
2023-04-20T01:55:08.804Z,75.84
2023-04-20T01:56:09.308Z,76.56
2023-04-20T01:57:08.825Z,76.35
2023-04-20T01:58:10.851Z,75.74
2023-04-20T01:59:09.038Z,75.01
2023-04-20T02:00:09.342Z,74.91
2023-04-20T02:01:09.393Z,74.91
2023-04-20T02:02:10.480Z,75.22
2023-04-20T02:03:10.550Z,75.05
2023-04-20T02:04:10.893Z,74.91
2023-04-20T02:05:10.021Z,75.12
2023-04-20T02:06:10.182Z,75.32
2023-04-20T02:07:11.344Z,74.91
2023-04-20T02:08:11.320Z,75.84
2023-04-20T02:09:10.714Z,75.32
2023-04-20T02:10:11.832Z,76.56
2023-04-20T02:11:12.165Z,75.53
2023-04-20T02:12:11.286Z,75.32
2023-04-20T02:13:11.393Z,76.04
2023-04-20T02:14:13.376Z,76.98
2023-04-20T02:15:12.307Z,77.18
2023-04-20T02:16:12.772Z,77.42
2023-04-20T02:17:12.204Z,76.98
2023-04-20T02:18:34.205Z,77.28
2023-04-20T02:19:13.312Z,77.42
2023-04-20T02:20:12.659Z,77.42
2023-04-20T02:21:12.917Z,78.25
2023-04-20T02:22:13.335Z,76.90
2023-04-20T02:23:13.330Z,77.01
2023-04-20T02:24:13.834Z,76.90
2023-04-20T02:25:13.534Z,76.18
2023-04-20T02:26:14.282Z,77.01
2023-04-20T02:27:14.322Z,77.08
2023-04-20T02:28:15.281Z,77.01
2023-04-20T02:29:14.825Z,76.08
2023-04-20T02:30:14.970Z,76.04
2023-04-20T02:31:14.456Z,76.04
2023-04-20T02:32:15.321Z,75.74
2023-04-20T02:33:16.275Z,75.74
2023-04-20T02:34:15.772Z,75.74
2023-04-20T02:35:15.827Z,76.04
2023-04-20T02:36:16.778Z,76.08
2023-04-20T02:37:16.316Z,77.01
2023-04-20T02:38:16.324Z,76.29
2023-04-20T02:39:16.346Z,77.22
2023-04-20T02:40:16.021Z,76.94
2023-04-20T02:41:16.182Z,77.11
2023-04-20T02:42:16.331Z,77.67
2023-04-20T02:43:18.210Z,77.36
2023-04-20T02:44:17.645Z,78.49
2023-04-20T02:45:17.863Z,77.46
2023-04-20T02:46:17.110Z,78.18
2023-04-20T02:47:18.194Z,79.01
2023-04-20T02:48:18.322Z,77.46
2023-04-20T02:49:19.500Z,78.08
2023-04-20T02:50:18.326Z,79.11
2023-04-20T02:51:18.837Z,79.01
2023-04-20T02:52:18.779Z,77.46
2023-04-20T02:53:18.299Z,77.04
2023-04-20T02:54:19.325Z,77.46
2023-04-20T02:55:19.335Z,77.15
2023-04-20T02:56:18.702Z,78.63
2023-04-20T02:57:18.856Z,78.94
2023-04-20T02:58:19.060Z,78.63
2023-04-20T02:59:19.357Z,78.74
2023-04-20T03:00:19.381Z,79.25
2023-04-20T03:01:20.290Z,79.25
2023-04-20T03:02:20.464Z,79.46
2023-04-20T03:03:22.359Z,80.60
2023-04-20T03:04:21.374Z,80.15
2023-04-20T03:05:20.331Z,79.25
2023-04-20T03:06:21.352Z,79.46
2023-04-20T03:07:20.720Z,78.84
2023-04-20T03:08:21.348Z,78.11
2023-04-20T03:09:23.677Z,78.53
2023-04-20T03:10:21.300Z,78.36
2023-04-20T03:11:22.353Z,78.88
2023-04-20T03:12:21.606Z,78.56
2023-04-20T03:13:21.870Z,78.88
2023-04-20T03:14:22.793Z,79.39
2023-04-20T03:15:22.054Z,80.01
2023-04-20T03:16:22.251Z,80.11
2023-04-20T03:17:22.474Z,80.32
2023-04-20T03:18:23.294Z,80.22
2023-04-20T03:19:23.347Z,80.32
2023-04-20T03:20:22.885Z,80.84
2023-04-20T03:21:24.287Z,80.53
2023-04-20T03:22:23.788Z,80.84
2023-04-20T03:23:24.790Z,80.53
2023-04-20T03:24:23.580Z,81.05
2023-04-20T03:25:24.438Z,81.35
2023-04-20T03:26:24.788Z,81.67
2023-04-20T03:27:24.224Z,82.18
2023-04-20T03:28:24.421Z,83.01
2023-04-20T03:29:24.608Z,82.39
2023-04-20T03:30:24.757Z,82.74
2023-04-20T03:31:25.861Z,83.11
2023-04-20T03:32:25.808Z,83.42
2023-04-20T03:33:25.848Z,84.15
2023-04-20T03:34:26.311Z,84.39
2023-04-20T03:35:26.332Z,84.60
2023-04-20T03:36:25.846Z,84.39
2023-04-20T03:37:27.833Z,84.91
2023-04-20T03:38:26.240Z,85.53
2023-04-20T03:39:26.415Z,85.53
2023-04-20T03:40:26.578Z,85.22
2023-04-20T03:41:26.750Z,85.53
2023-04-20T03:42:27.793Z,85.53
2023-04-20T03:43:27.079Z,85.94
2023-04-20T03:44:27.214Z,86.25
2023-04-20T03:45:27.391Z,86.25
2023-04-20T03:46:28.392Z,86.77
2023-04-20T03:47:28.368Z,86.36
2023-04-20T03:48:28.037Z,86.98
2023-04-20T03:49:28.200Z,87.29
2023-04-20T03:50:29.337Z,87.54
2023-04-20T03:51:30.180Z,88.16
2023-04-20T03:52:28.649Z,88.57
2023-04-20T03:53:30.296Z,88.57
2023-04-20T03:54:29.833Z,89.29
2023-04-20T03:55:29.801Z,89.23
2023-04-20T03:56:30.295Z,90.23
2023-04-20T03:57:30.340Z,90.84
2023-04-20T03:58:29.850Z,90.84
2023-04-20T03:59:29.887Z,90.74
2023-04-20T04:00:30.725Z,90.68
2023-04-20T04:01:30.841Z,91.05
2023-04-20T04:02:31.528Z,91.88
2023-04-20T04:03:30.918Z,91.51
2023-04-20T04:04:31.215Z,92.61
2023-04-20T04:05:31.295Z,91.78
2023-04-20T04:06:31.356Z,91.61
2023-04-20T04:07:32.353Z,91.61
2023-04-20T04:08:32.568Z,92.30
2023-04-20T04:09:33.295Z,92.85
2023-04-20T04:10:32.126Z,92.34
2023-04-20T04:11:32.795Z,92.65
2023-04-20T04:12:32.404Z,92.34
2023-04-20T04:13:34.823Z,92.76
2023-04-20T04:14:33.786Z,92.34
2023-04-20T04:15:32.894Z,92.55
2023-04-20T04:16:33.067Z,93.06
2023-04-20T04:17:33.252Z,93.16
2023-04-20T04:18:33.436Z,93.06
2023-04-20T04:19:33.579Z,93.02
2023-04-20T04:20:33.848Z,93.02
2023-04-20T04:21:36.300Z,93.27
2023-04-20T04:22:34.352Z,93.23
2023-04-20T04:23:36.798Z,94.20
2023-04-20T04:24:34.465Z,94.10
2023-04-20T04:25:34.708Z,93.68
2023-04-20T04:26:35.340Z,94.62
2023-04-20T04:27:34.949Z,93.99
2023-04-20T04:28:35.847Z,94.51
2023-04-20T04:29:36.308Z,94.62
2023-04-20T04:30:35.643Z,94.62
2023-04-20T04:31:35.765Z,93.99
2023-04-20T04:32:35.919Z,93.79
2023-04-20T04:33:37.820Z,94.41
2023-04-20T04:34:36.274Z,94.57
2023-04-20T04:35:36.478Z,94.26
2023-04-20T04:36:37.313Z,94.06
2023-04-20T04:37:38.312Z,94.51
2023-04-20T04:38:36.908Z,94.82
2023-04-20T04:39:37.062Z,94.57
2023-04-20T04:40:37.228Z,94.82
2023-04-20T04:41:37.371Z,94.93
2023-04-20T04:42:38.339Z,94.82
2023-04-20T04:43:37.700Z,94.93
2023-04-20T04:44:37.867Z,95.40
2023-04-20T04:45:39.306Z,95.44
2023-04-20T04:46:39.842Z,95.24
2023-04-20T04:47:39.384Z,95.44
2023-04-20T04:48:40.365Z,95.24
2023-04-20T04:49:38.729Z,95.24
2023-04-20T04:50:38.837Z,95.24
2023-04-20T04:51:40.828Z,95.03
2023-04-20T04:52:39.293Z,95.86
2023-04-20T04:53:41.312Z,95.24
2023-04-20T04:54:39.678Z,96.17
2023-04-20T04:55:39.852Z,96.27
2023-04-20T04:56:40.010Z,96.48
2023-04-20T04:57:41.152Z,95.96
2023-04-20T04:58:42.316Z,95.86
2023-04-20T04:59:41.703Z,95.86
2023-04-20T05:00:41.683Z,95.65
2023-04-20T05:01:40.937Z,96.52
2023-04-20T05:02:41.309Z,96.52
2023-04-20T05:03:42.049Z,96.37
2023-04-20T05:04:42.104Z,96.27
2023-04-20T05:05:42.366Z,96.42
2023-04-20T05:06:41.718Z,96.37
2023-04-20T05:07:43.310Z,96.48
2023-04-20T05:08:42.069Z,96.48
2023-04-20T05:09:42.205Z,96.58
2023-04-20T05:10:42.355Z,96.48
2023-04-20T05:11:42.499Z,96.48
2023-04-20T05:12:42.699Z,96.17
2023-04-20T05:13:42.884Z,96.27
2023-04-20T05:14:43.028Z,96.27
2023-04-20T05:15:43.993Z,96.48
2023-04-20T05:16:45.450Z,96.58
2023-04-20T05:17:43.780Z,96.21
2023-04-20T05:18:44.356Z,96.42
2023-04-20T05:19:44.823Z,96.42
2023-04-20T05:20:44.083Z,97.35
2023-04-20T05:21:44.254Z,97.97
2023-04-20T05:22:45.349Z,97.66
2023-04-20T05:23:44.589Z,97.87
2023-04-20T05:24:46.317Z,98.22
2023-04-20T05:25:45.847Z,98.22
2023-04-20T05:26:45.751Z,98.85
2023-04-20T05:27:45.369Z,99.99
2023-04-20T05:28:45.520Z,99.99
2023-04-20T05:29:45.675Z,99.99
2023-04-20T05:30:46.359Z,99.99
2023-04-20T05:31:46.856Z,99.99
2023-04-20T05:32:47.706Z,99.99
2023-04-20T05:33:47.378Z,99.99
2023-04-20T05:34:47.422Z,99.99
2023-04-20T05:35:47.474Z,99.99
2023-04-20T05:36:47.847Z,99.99
2023-04-20T05:37:47.994Z,99.99
2023-04-20T05:38:48.357Z,99.99
2023-04-20T05:39:47.585Z,99.99
2023-04-20T05:40:47.857Z,99.99
2023-04-20T05:41:48.036Z,99.99
2023-04-20T05:42:50.314Z,99.99
2023-04-20T05:43:48.392Z,99.99
2023-04-20T05:44:48.535Z,99.99
2023-04-20T05:45:50.334Z,99.99
2023-04-20T05:46:49.381Z,99.99
2023-04-20T05:47:49.883Z,99.99
2023-04-20T05:48:50.214Z,99.99
2023-04-20T05:49:49.442Z,99.99
2023-04-20T05:50:49.576Z,99.68
2023-04-20T05:51:50.366Z,99.88
2023-04-20T05:52:50.820Z,99.37
2023-04-20T05:53:50.027Z,98.64
2023-04-20T05:54:50.824Z,99.05
2023-04-20T05:55:50.450Z,98.64
2023-04-20T05:56:50.598Z,98.95
2023-04-20T05:57:52.499Z,98.85
2023-04-20T05:58:51.887Z,98.64
2023-04-20T05:59:51.368Z,99.16
2023-04-20T06:00:51.228Z,99.32
2023-04-20T06:01:52.330Z,99.05
2023-04-20T06:02:52.495Z,98.74
2023-04-20T06:03:52.134Z,98.60
2023-04-20T06:04:52.125Z,98.22
2023-04-20T06:05:52.456Z,98.95
2023-04-20T06:06:52.859Z,98.08
2023-04-20T06:07:52.588Z,98.39
2023-04-20T06:08:52.911Z,98.49
2023-04-20T06:09:52.919Z,97.77
2023-04-20T06:10:53.888Z,97.77
2023-04-20T06:11:53.406Z,98.08
2023-04-20T06:12:54.425Z,97.56
2023-04-20T06:13:54.404Z,97.97
2023-04-20T06:14:55.330Z,97.35
2023-04-20T06:15:54.949Z,97.04
2023-04-20T06:16:54.130Z,97.00
2023-04-20T06:17:54.380Z,96.31
2023-04-20T06:18:55.331Z,96.31
2023-04-20T06:19:54.716Z,96.52
2023-04-20T06:20:55.921Z,96.31
2023-04-20T06:21:55.833Z,96.37
2023-04-20T06:22:55.240Z,96.48
2023-04-20T06:23:57.328Z,96.42
2023-04-20T06:24:56.329Z,96.52
2023-04-20T06:25:56.334Z,96.42
2023-04-20T06:26:55.997Z,96.58
2023-04-20T06:27:56.149Z,96.83
2023-04-20T06:28:56.286Z,96.42
2023-04-20T06:29:56.494Z,96.42
2023-04-20T06:30:57.244Z,96.42
2023-04-20T06:31:56.849Z,96.73
2023-04-20T06:32:58.866Z,97.04
2023-04-20T06:33:57.268Z,97.04
2023-04-20T06:34:57.444Z,96.73
2023-04-20T06:35:58.402Z,98.03
2023-04-20T06:36:57.809Z,97.10
2023-04-20T06:37:57.938Z,96.31
2023-04-20T06:38:58.875Z,96.73
2023-04-20T06:39:58.283Z,96.73
2023-04-20T06:40:58.436Z,97.04
2023-04-20T06:41:58.570Z,96.62
2023-04-20T06:42:59.330Z,97.04
2023-04-20T06:43:59.898Z,97.14
2023-04-20T06:44:59.884Z,97.14
2023-04-20T06:45:59.392Z,96.73
2023-04-20T06:46:59.587Z,96.62
2023-04-20T06:47:59.725Z,96.73
2023-04-20T06:48:59.929Z,96.94
2023-04-20T06:50:00.883Z,97.45
2023-04-20T06:51:00.281Z,97.97
2023-04-20T06:52:00.698Z,97.04
2023-04-20T06:53:01.320Z,98.08
2023-04-20T06:54:02.337Z,97.56
2023-04-20T06:55:00.961Z,97.97
2023-04-20T06:56:01.119Z,97.56
2023-04-20T06:57:01.326Z,97.56
2023-04-20T06:58:01.570Z,97.71
2023-04-20T06:59:02.371Z,97.77
2023-04-20T07:00:01.897Z,98.49
2023-04-20T07:01:02.067Z,98.80
2023-04-20T07:02:02.643Z,98.91
2023-04-20T07:03:02.505Z,98.95
2023-04-20T07:04:02.790Z,99.63
2023-04-20T07:05:02.865Z,99.84
2023-04-20T07:06:02.941Z,99.63
2023-04-20T07:07:03.990Z,99.99
2023-04-20T07:08:03.842Z,99.99
2023-04-20T07:09:03.490Z,99.99
2023-04-20T07:10:03.655Z,99.99
2023-04-20T07:11:03.788Z,99.99
2023-04-20T07:12:03.949Z,99.99
2023-04-20T07:13:06.329Z,99.99
2023-04-20T07:14:04.282Z,99.99
2023-04-20T07:15:04.437Z,99.99
2023-04-20T07:16:04.660Z,99.99
2023-04-20T07:17:04.802Z,99.99
2023-04-20T07:18:07.899Z,99.99
2023-04-20T07:19:05.876Z,99.99
2023-04-20T07:20:05.880Z,99.99
2023-04-20T07:21:06.848Z,99.99
2023-04-20T07:22:07.455Z,99.99
2023-04-20T07:23:05.924Z,99.99
2023-04-20T07:24:06.065Z,99.99
2023-04-20T07:25:06.192Z,99.99
2023-04-20T07:26:06.330Z,99.99
2023-04-20T07:27:07.445Z,99.99
2023-04-20T07:28:06.606Z,99.99
2023-04-20T07:29:06.752Z,99.99
2023-04-20T07:30:07.877Z,99.99
2023-04-20T07:31:07.891Z,99.99
2023-04-20T07:32:07.187Z,99.99
2023-04-20T07:33:07.455Z,99.99
2023-04-20T07:34:09.341Z,99.99
2023-04-20T07:35:07.901Z,99.99
2023-04-20T07:36:08.883Z,99.99
2023-04-20T07:37:08.142Z,99.99
2023-04-20T07:38:08.364Z,99.99
2023-04-20T07:39:09.379Z,99.99
2023-04-20T07:40:09.355Z,99.99
2023-04-20T07:41:08.859Z,99.99
2023-04-20T07:42:09.840Z,99.99
2023-04-20T07:43:09.907Z,99.99
2023-04-20T07:44:09.385Z,99.99
2023-04-20T07:45:10.389Z,99.99
2023-04-20T07:46:09.760Z,99.99
2023-04-20T07:47:09.947Z,99.99
2023-04-20T07:48:10.127Z,99.99
2023-04-20T07:49:10.260Z,99.99
2023-04-20T07:50:10.426Z,99.99
2023-04-20T07:51:11.388Z,99.99
2023-04-20T07:52:16.930Z,99.99
2023-04-20T07:53:13.369Z,99.99
2023-04-20T07:54:11.053Z,99.99
2023-04-20T07:55:11.181Z,99.99
2023-04-20T07:56:13.346Z,99.99
2023-04-20T07:57:12.866Z,99.99
2023-04-20T07:58:11.715Z,99.99
2023-04-20T07:59:11.962Z,99.99
2023-04-20T08:00:12.931Z,99.99
2023-04-20T08:01:12.351Z,99.99
2023-04-20T08:02:12.614Z,99.99
2023-04-20T08:03:12.832Z,99.99
2023-04-20T08:04:13.250Z,99.99
2023-04-20T08:05:13.400Z,99.99
2023-04-20T08:06:13.486Z,99.99
2023-04-20T08:07:14.089Z,99.99
2023-04-20T08:08:13.591Z,99.99
2023-04-20T08:09:14.046Z,99.99
2023-04-20T08:10:13.960Z,99.99
2023-04-20T08:11:14.121Z,99.99
2023-04-20T08:12:14.890Z,99.99
2023-04-20T08:13:14.389Z,99.98
2023-04-20T08:14:15.379Z,98.53
2023-04-20T08:15:14.786Z,97.54
2023-04-20T08:16:15.005Z,97.75
2023-04-20T08:17:15.175Z,96.20
2023-04-20T08:18:15.343Z,98.74
2023-04-20T08:19:15.543Z,97.50
2023-04-20T08:20:15.744Z,96.82
2023-04-20T08:21:15.921Z,99.30
2023-04-20T08:22:16.085Z,99.99
2023-04-20T08:23:16.233Z,98.27
2023-04-20T08:24:17.674Z,98.27
2023-04-20T08:25:16.647Z,97.07
2023-04-20T08:26:16.822Z,97.94
2023-04-20T08:27:17.902Z,98.87
2023-04-20T08:28:32.397Z,99.49
2023-04-20T08:29:19.314Z,98.71
2023-04-20T08:30:18.417Z,99.91
2023-04-20T08:31:18.429Z,98.97
2023-04-20T08:32:17.812Z,98.35
2023-04-20T08:33:18.853Z,98.72
2023-04-20T08:34:18.118Z,98.21
2023-04-20T08:35:18.238Z,97.07
2023-04-20T08:36:19.382Z,97.96
2023-04-20T08:37:18.488Z,97.89
2023-04-20T08:38:23.715Z,97.54
2023-04-20T08:39:20.503Z,96.51
2023-04-20T08:40:20.118Z,96.82
2023-04-20T08:41:19.250Z,96.30
2023-04-20T08:42:20.846Z,97.85
2023-04-20T08:43:22.029Z,96.82
2023-04-20T08:44:20.777Z,97.60
2023-04-20T08:45:20.027Z,97.60
2023-04-20T08:46:20.179Z,96.15
2023-04-20T08:47:20.339Z,94.65
2023-04-20T08:48:21.422Z,94.54
2023-04-20T08:49:21.362Z,95.57
2023-04-20T08:50:20.844Z,96.15
2023-04-20T08:51:21.000Z,93.30
2023-04-20T08:52:21.146Z,93.72
2023-04-20T08:53:21.274Z,93.88
2023-04-20T08:54:24.274Z,93.57
2023-04-20T08:55:21.620Z,91.20
2023-04-20T08:56:22.883Z,92.79
2023-04-20T08:57:22.011Z,93.78
2023-04-20T08:58:22.170Z,93.57
2023-04-20T08:59:22.966Z,92.80
2023-04-20T09:00:23.410Z,93.16
2023-04-20T09:01:32.172Z,93.16
2023-04-20T09:02:25.078Z,93.78
2023-04-20T09:03:23.105Z,92.64
2023-04-20T09:04:23.530Z,92.68
2023-04-20T09:05:23.453Z,94.50
2023-04-20T09:06:23.862Z,92.99
2023-04-20T09:07:23.538Z,92.99
2023-04-20T09:08:24.398Z,91.96
2023-04-20T09:09:23.790Z,94.19
2023-04-20T09:10:23.975Z,92.72
2023-04-20T09:11:24.162Z,92.93
2023-04-20T09:12:24.329Z,93.87
2023-04-20T09:13:24.526Z,93.20
2023-04-20T09:14:26.360Z,92.89
2023-04-20T09:15:24.897Z,92.74
2023-04-20T09:16:25.900Z,92.95
2023-04-20T09:17:25.894Z,92.68
2023-04-20T09:18:25.410Z,92.74
2023-04-20T09:19:26.858Z,93.26
2023-04-20T09:20:25.714Z,93.01
2023-04-20T09:21:25.870Z,92.40
2023-04-20T09:22:26.024Z,91.63
2023-04-20T09:23:26.907Z,91.11
2023-04-20T09:24:26.412Z,90.59
2023-04-20T09:25:28.442Z,91.07
2023-04-20T09:26:27.789Z,90.66
2023-04-20T09:27:27.424Z,90.04
2023-04-20T09:28:27.061Z,90.25
2023-04-20T09:29:27.226Z,90.72
2023-04-20T09:30:28.864Z,89.29
2023-04-20T09:31:28.460Z,88.20
2023-04-20T09:32:27.743Z,88.62
2023-04-20T09:33:27.958Z,88.78
2023-04-20T09:34:28.169Z,86.88
2023-04-20T09:35:28.415Z,85.24
2023-04-20T09:36:29.405Z,86.68
2023-04-20T09:37:28.926Z,85.86
2023-04-20T09:38:29.395Z,85.07
2023-04-20T09:39:30.905Z,85.63
2023-04-20T09:40:29.929Z,85.36
2023-04-20T09:41:29.426Z,87.11
2023-04-20T09:42:30.613Z,84.43
2023-04-20T09:43:29.747Z,85.15
2023-04-20T09:44:29.924Z,85.05
2023-04-20T09:45:30.920Z,86.02
2023-04-20T09:46:30.949Z,86.32
2023-04-20T09:47:30.457Z,87.21
2023-04-20T09:48:32.115Z,86.80
2023-04-20T09:49:30.874Z,86.90
2023-04-20T09:50:45.731Z,87.32
2023-04-20T09:51:33.201Z,87.21
2023-04-20T09:52:31.395Z,86.02
2023-04-20T09:53:31.567Z,87.35
2023-04-20T09:54:32.413Z,87.77
2023-04-20T09:55:32.866Z,87.50
2023-04-20T09:56:32.153Z,88.53
2023-04-20T09:57:32.285Z,88.18
2023-04-20T09:58:32.427Z,87.46
2023-04-20T09:59:32.576Z,87.05
2023-04-20T10:00:33.368Z,86.74
2023-04-20T10:01:33.444Z,87.07
2023-04-20T10:02:34.971Z,88.17
2023-04-20T10:03:33.329Z,86.31
2023-04-20T10:04:33.450Z,85.11
2023-04-20T10:05:33.937Z,85.94
2023-04-20T10:06:33.729Z,86.35
2023-04-20T10:07:33.902Z,86.55
2023-04-20T10:08:34.092Z,87.17
2023-04-20T10:09:34.290Z,85.38
2023-04-20T10:10:34.452Z,85.83
2023-04-20T10:11:49.059Z,85.36
2023-04-20T10:12:36.979Z,85.87
2023-04-20T10:13:36.372Z,85.87
2023-04-20T10:14:35.110Z,87.21
2023-04-20T10:15:36.895Z,86.45
2023-04-20T10:16:36.435Z,86.76
2023-04-20T10:17:35.664Z,86.24
2023-04-20T10:18:35.783Z,86.45
2023-04-20T10:19:37.373Z,87.07
2023-04-20T10:20:35.992Z,83.87
2023-04-20T10:21:36.150Z,84.29
2023-04-20T10:22:36.326Z,83.05
2023-04-20T10:23:36.478Z,82.60
2023-04-20T10:24:37.418Z,82.56
2023-04-20T10:25:36.812Z,81.74
2023-04-20T10:26:36.989Z,80.57
2023-04-20T10:27:37.449Z,79.06
2023-04-20T10:28:37.387Z,79.00
2023-04-20T10:29:37.536Z,79.93
2023-04-20T10:30:38.448Z,79.93
2023-04-20T10:31:38.556Z,80.19
2023-04-20T10:32:39.968Z,80.40
2023-04-20T10:33:38.215Z,80.26
2023-04-20T10:34:38.409Z,79.54
2023-04-20T10:35:38.931Z,78.30
2023-04-20T10:36:39.416Z,78.89
2023-04-20T10:37:40.377Z,78.27
2023-04-20T10:38:39.917Z,78.27
2023-04-20T10:39:39.938Z,78.06
2023-04-20T10:40:39.943Z,77.86
2023-04-20T10:41:40.421Z,78.37
2023-04-20T10:42:40.488Z,77.34
2023-04-20T10:43:40.878Z,78.23
2023-04-20T10:44:40.453Z,78.44
2023-04-20T10:45:40.484Z,76.69
2023-04-20T10:46:41.704Z,76.73
2023-04-20T10:47:40.831Z,76.69
2023-04-20T10:48:40.960Z,76.59
2023-04-20T10:49:41.113Z,74.67
2023-04-20T10:50:41.824Z,73.85
2023-04-20T10:51:42.504Z,73.88
2023-04-20T10:52:42.271Z,73.50
2023-04-20T10:53:41.825Z,73.61
2023-04-20T10:54:42.889Z,73.33
2023-04-20T10:55:42.014Z,73.27
2023-04-20T10:56:42.955Z,73.71
2023-04-20T10:57:42.952Z,73.61
2023-04-20T10:58:42.524Z,73.13
2023-04-20T10:59:43.424Z,74.40
2023-04-20T11:00:45.273Z,74.50
2023-04-20T11:01:43.925Z,75.21
2023-04-20T11:02:43.449Z,75.52
2023-04-20T11:03:43.613Z,73.71
2023-04-20T11:04:44.482Z,74.53
2023-04-20T11:05:44.896Z,74.53
2023-04-20T11:06:44.026Z,75.04
2023-04-20T11:07:45.376Z,75.15
2023-04-20T11:08:45.378Z,76.11
2023-04-20T11:09:45.427Z,76.73
2023-04-20T11:10:44.696Z,76.73
2023-04-20T11:11:44.861Z,77.96
2023-04-20T11:12:45.468Z,77.20
2023-04-20T11:13:45.270Z,77.92
2023-04-20T11:14:46.427Z,76.69
2023-04-20T11:15:45.721Z,76.90
2023-04-20T11:16:51.518Z,77.92
2023-04-20T11:17:48.199Z,77.31
2023-04-20T11:18:46.934Z,78.20
2023-04-20T11:19:46.503Z,77.89
2023-04-20T11:20:46.712Z,76.55
2023-04-20T11:21:46.875Z,76.62
2023-04-20T11:22:48.889Z,78.37
2023-04-20T11:23:48.337Z,78.30
2023-04-20T11:24:48.395Z,78.27
2023-04-20T11:25:48.426Z,78.34
2023-04-20T11:26:48.432Z,78.41
2023-04-20T11:27:49.055Z,78.34
2023-04-20T11:28:48.928Z,79.23
2023-04-20T11:29:48.326Z,78.82
2023-04-20T11:30:48.507Z,78.41
2023-04-20T11:31:49.620Z,78.37
2023-04-20T11:32:48.886Z,78.20
2023-04-20T11:33:49.950Z,77.31
2023-04-20T11:34:55.972Z,78.30
2023-04-20T11:35:51.936Z,78.72
2023-04-20T11:36:50.280Z,78.41
2023-04-20T11:37:49.644Z,78.47
2023-04-20T11:38:50.409Z,77.03
2023-04-20T11:39:51.393Z,75.90
2023-04-20T11:40:50.111Z,75.76
2023-04-20T11:41:50.271Z,76.07
2023-04-20T11:42:50.423Z,75.32
2023-04-20T11:43:50.709Z,75.29
2023-04-20T11:44:50.758Z,75.04
2023-04-20T11:45:50.982Z,74.91
2023-04-20T11:46:52.074Z,73.13
2023-04-20T11:47:51.285Z,72.72
2023-04-20T11:48:51.459Z,72.34
2023-04-20T11:49:51.657Z,72.72
2023-04-20T11:50:52.399Z,71.11
2023-04-20T11:51:52.899Z,70.73
2023-04-20T11:52:52.281Z,72.38
2023-04-20T11:53:52.442Z,71.66
2023-04-20T11:54:52.579Z,71.31
2023-04-20T11:55:52.935Z,70.77
2023-04-20T11:56:54.954Z,70.67
2023-04-20T11:57:53.178Z,71.08
2023-04-20T11:58:53.356Z,70.97
2023-04-20T11:59:54.409Z,71.08
2023-04-20T12:00:53.786Z,70.18
2023-04-20T12:01:53.961Z,71.11
2023-04-20T12:02:54.346Z,70.63
2023-04-20T12:03:54.568Z,70.97
2023-04-20T12:04:54.587Z,71.79
2023-04-20T12:05:54.748Z,72.06
2023-04-20T12:06:54.914Z,72.51
2023-04-20T12:07:55.904Z,72.48
2023-04-20T12:08:55.944Z,72.17
2023-04-20T12:09:55.439Z,71.86
2023-04-20T12:10:57.344Z,73.91
2023-04-20T12:11:56.958Z,72.55
2023-04-20T12:12:55.963Z,72.96
2023-04-20T12:13:56.225Z,71.62
2023-04-20T12:14:56.362Z,73.30
2023-04-20T12:15:57.418Z,73.71
2023-04-20T12:16:58.684Z,73.71
2023-04-20T12:17:57.468Z,73.19
2023-04-20T12:18:57.909Z,72.82
2023-04-20T12:19:57.282Z,73.74
2023-04-20T12:20:58.907Z,74.91
2023-04-20T12:21:57.653Z,73.78
2023-04-20T12:22:59.075Z,73.81
2023-04-20T12:23:58.959Z,74.50
2023-04-20T12:24:58.114Z,74.50
2023-04-20T12:25:58.903Z,74.29
2023-04-20T12:26:59.518Z,74.08
2023-04-20T12:27:59.473Z,74.74
2023-04-20T12:28:58.851Z,75.46
2023-04-20T12:29:59.419Z,75.15
2023-04-20T12:30:59.099Z,75.67
2023-04-20T12:32:00.156Z,76.76
2023-04-20T12:32:59.506Z,74.98
2023-04-20T12:34:00.460Z,75.45
2023-04-20T12:34:59.768Z,72.34
2023-04-20T12:36:01.294Z,71.76
2023-04-20T12:37:00.977Z,70.94
2023-04-20T12:38:00.912Z,71.14
2023-04-20T12:39:00.453Z,70.15
2023-04-20T12:40:00.591Z,70.76
2023-04-20T12:41:00.724Z,70.87
2023-04-20T12:42:01.464Z,70.94
2023-04-20T12:43:01.973Z,70.42
2023-04-20T12:44:04.136Z,70.73
2023-04-20T12:45:02.419Z,70.73
2023-04-20T12:46:03.302Z,70.53
2023-04-20T12:47:02.127Z,70.29
2023-04-20T12:48:02.492Z,69.74
2023-04-20T12:49:03.295Z,69.89
2023-04-20T12:50:02.965Z,69.54
2023-04-20T12:51:02.459Z,69.75
2023-04-20T12:52:05.719Z,68.35
2023-04-20T12:53:04.302Z,68.24
2023-04-20T12:54:03.411Z,68.86
2023-04-20T12:55:02.992Z,67.73